createdAt,value
2022-10-30T00:00:49.471Z,3.80
2022-10-30T00:03:37.880Z,4.20
2022-10-30T00:06:26.246Z,3.47
2022-10-30T00:09:16.175Z,3.93
2022-10-30T00:12:05.185Z,3.83
2022-10-30T00:14:53.539Z,3.60
2022-10-30T00:17:41.894Z,4.47
2022-10-30T00:20:30.322Z,3.87
2022-10-30T00:23:18.775Z,4.10
2022-10-30T00:26:08.659Z,4.07
2022-10-30T00:28:57.364Z,3.97
2022-10-30T00:31:45.735Z,3.77
2022-10-30T00:34:34.101Z,4.40
2022-10-30T00:37:22.497Z,4.03
2022-10-30T00:40:14.855Z,4.43
2022-10-30T00:43:04.623Z,3.93
2022-10-30T00:45:53.030Z,4.07
2022-10-30T00:48:41.419Z,4.23
2022-10-30T00:51:30.047Z,3.87
2022-10-30T00:54:19.021Z,4.33
2022-10-30T00:57:07.497Z,4.20
2022-10-30T00:59:57.351Z,4.00
2022-10-30T01:02:45.897Z,4.33
2022-10-30T01:05:34.349Z,4.20
2022-10-30T01:08:22.805Z,4.93
2022-10-30T01:11:11.230Z,4.37
2022-10-30T01:14:03.535Z,4.50
2022-10-30T01:17:03.777Z,4.60
2022-10-30T01:19:57.991Z,4.10
2022-10-30T01:22:55.156Z,4.13
2022-10-30T01:25:52.384Z,3.80
2022-10-30T01:29:01.154Z,4.50
2022-10-30T01:31:58.912Z,4.40
2022-10-30T01:34:59.210Z,3.93
2022-10-30T01:37:53.447Z,3.90
2022-10-30T01:40:41.905Z,4.47
2022-10-30T01:43:30.469Z,4.33
2022-10-30T01:46:37.567Z,4.67
2022-10-30T01:49:49.905Z,4.50
2022-10-30T01:52:43.172Z,4.17
2022-10-30T01:55:36.347Z,3.83
2022-10-30T01:58:28.341Z,4.17
2022-10-30T02:01:18.576Z,4.37
2022-10-30T02:04:08.525Z,3.90
2022-10-30T02:06:58.301Z,4.20
2022-10-30T02:09:47.556Z,5.10
2022-10-30T02:12:37.037Z,4.00
2022-10-30T02:15:25.449Z,4.43
2022-10-30T02:18:15.591Z,4.73
2022-10-30T02:21:06.511Z,4.73
2022-10-30T02:23:54.987Z,4.43
2022-10-30T02:26:43.378Z,4.17
2022-10-30T02:29:31.784Z,4.60
2022-10-30T02:32:20.664Z,4.17
2022-10-30T02:35:10.035Z,4.67
2022-10-30T02:38:00.248Z,4.20
2022-10-30T02:40:48.854Z,4.20
2022-10-30T02:43:37.215Z,4.47
2022-10-30T02:46:26.248Z,4.87
2022-10-30T02:49:14.636Z,4.90
2022-10-30T02:52:03.116Z,4.33
2022-10-30T02:54:52.865Z,4.60
2022-10-30T02:57:41.408Z,4.33
2022-10-30T03:00:29.907Z,4.37
2022-10-30T03:03:21.421Z,4.53
2022-10-30T03:06:15.471Z,4.80
2022-10-30T03:09:03.914Z,4.20
2022-10-30T03:11:53.949Z,4.57
2022-10-30T03:14:45.159Z,4.00
2022-10-30T03:17:33.643Z,4.77
2022-10-30T03:20:22.149Z,4.47
2022-10-30T03:23:10.558Z,4.80
2022-10-30T03:26:00.052Z,4.27
2022-10-30T03:28:50.250Z,4.40
2022-10-30T03:31:38.609Z,4.70
2022-10-30T03:34:32.334Z,4.10
2022-10-30T03:37:22.811Z,4.50
2022-10-30T03:40:12.843Z,4.10
2022-10-30T03:43:01.659Z,4.33
2022-10-30T03:45:53.027Z,4.40
2022-10-30T03:48:41.434Z,4.60
2022-10-30T03:51:30.868Z,4.27
2022-10-30T03:54:19.786Z,4.53
2022-10-30T03:57:08.178Z,4.30
2022-10-30T04:00:10.828Z,4.50
2022-10-30T04:03:17.881Z,4.50
2022-10-30T04:06:06.897Z,4.40
2022-10-30T04:08:55.968Z,6.10
2022-10-30T04:11:45.512Z,5.83
2022-10-30T04:14:33.896Z,7.43
2022-10-30T04:17:22.302Z,5.83
2022-10-30T04:20:12.612Z,7.07
2022-10-30T04:23:03.803Z,8.20
2022-10-30T04:25:52.783Z,7.03
2022-10-30T04:28:41.183Z,5.93
2022-10-30T04:31:29.763Z,5.87
2022-10-30T04:34:18.154Z,4.73
2022-10-30T04:37:07.991Z,5.07
2022-10-30T04:39:57.810Z,7.40
2022-10-30T04:42:48.731Z,6.37
2022-10-30T04:45:37.415Z,6.17
2022-10-30T04:48:27.294Z,6.17
2022-10-30T04:51:16.048Z,5.03
2022-10-30T04:54:07.301Z,5.40
2022-10-30T04:56:56.872Z,4.60
2022-10-30T04:59:45.928Z,4.80
2022-10-30T05:02:36.100Z,5.20
2022-10-30T05:05:24.859Z,5.30
2022-10-30T05:08:13.220Z,5.10
2022-10-30T05:11:04.991Z,5.90
2022-10-30T05:13:53.495Z,5.10
2022-10-30T05:16:41.865Z,5.13
2022-10-30T05:19:30.276Z,4.40
2022-10-30T05:22:19.047Z,4.10
2022-10-30T05:25:08.679Z,4.33
2022-10-30T05:28:02.261Z,4.40
2022-10-30T05:30:53.873Z,4.90
2022-10-30T05:34:11.199Z,4.23
2022-10-30T05:37:01.625Z,4.50
2022-10-30T05:39:50.043Z,4.30
2022-10-30T05:42:47.603Z,3.90
2022-10-30T05:45:37.886Z,4.20
2022-10-30T05:48:28.498Z,3.77
2022-10-30T05:51:17.064Z,4.40
2022-10-30T05:54:11.943Z,4.20
2022-10-30T05:57:10.996Z,4.47
2022-10-30T06:00:01.324Z,3.90
2022-10-30T06:02:51.277Z,3.90
2022-10-30T06:05:19.529Z,4.10
2022-10-30T06:07:47.879Z,4.10
2022-10-30T06:10:16.609Z,4.67
2022-10-30T06:13:04.784Z,4.60
2022-10-30T06:15:39.864Z,4.30
2022-10-30T06:18:09.549Z,4.60
2022-10-30T06:20:43.306Z,4.53
2022-10-30T06:23:26.957Z,4.13
2022-10-30T06:26:08.674Z,4.40
2022-10-30T06:28:42.798Z,4.10
2022-10-30T06:31:12.947Z,4.20
2022-10-30T06:33:42.531Z,4.50
2022-10-30T06:36:11.361Z,4.17
2022-10-30T06:38:40.152Z,4.10
2022-10-30T06:41:09.142Z,3.97
2022-10-30T06:43:55.844Z,4.33
2022-10-30T06:46:29.043Z,4.00
2022-10-30T06:49:02.330Z,4.23
2022-10-30T06:51:31.975Z,3.87
2022-10-30T06:54:01.351Z,4.10
2022-10-30T06:56:41.711Z,4.43
2022-10-30T06:59:16.019Z,4.30
2022-10-30T07:01:55.776Z,5.00
2022-10-30T07:04:29.433Z,5.37
2022-10-30T07:07:00.194Z,4.80
2022-10-30T07:09:28.391Z,4.40
2022-10-30T07:11:57.306Z,4.80
2022-10-30T07:14:25.920Z,4.20
2022-10-30T07:16:59.313Z,4.73
2022-10-30T07:19:30.218Z,4.67
2022-10-30T07:21:59.054Z,4.27
2022-10-30T07:24:27.214Z,4.53
2022-10-30T07:27:13.918Z,3.90
2022-10-30T07:29:46.421Z,4.50
2022-10-30T07:32:23.211Z,4.07
2022-10-30T07:34:55.575Z,4.27
2022-10-30T07:37:43.209Z,4.13
2022-10-30T07:40:15.696Z,4.43
2022-10-30T07:42:57.768Z,3.93
2022-10-30T07:45:49.096Z,3.90
2022-10-30T07:48:17.131Z,4.30
2022-10-30T07:50:58.812Z,4.30
2022-10-30T07:53:28.110Z,3.67
2022-10-30T07:55:57.241Z,4.07
2022-10-30T07:58:45.739Z,4.07
2022-10-30T08:01:35.274Z,3.80
2022-10-30T08:04:17.631Z,3.77
2022-10-30T08:06:47.164Z,3.87
2022-10-30T08:09:15.316Z,3.70
2022-10-30T08:11:43.415Z,3.60
2022-10-30T08:14:11.632Z,4.20
2022-10-30T08:16:39.752Z,3.70
2022-10-30T08:19:09.581Z,3.90
2022-10-30T08:21:37.734Z,3.87
2022-10-30T08:24:11.562Z,3.87
2022-10-30T08:26:42.798Z,3.73
2022-10-30T08:29:12.675Z,4.33
2022-10-30T08:31:41.678Z,4.93
2022-10-30T08:34:38.718Z,5.90
2022-10-30T08:37:08.740Z,8.20
2022-10-30T08:39:38.752Z,10.30
2022-10-30T08:42:27.170Z,9.93
2022-10-30T08:44:57.465Z,7.97
2022-10-30T08:47:44.518Z,7.23
2022-10-30T08:50:12.790Z,6.63
2022-10-30T08:52:40.916Z,5.67
2022-10-30T08:55:10.953Z,5.80
2022-10-30T08:57:39.197Z,5.23
2022-10-30T09:00:11.174Z,5.70
2022-10-30T09:03:03.069Z,6.53
2022-10-30T09:05:50.364Z,6.03
2022-10-30T09:08:18.525Z,4.87
2022-10-30T09:11:07.261Z,4.60
2022-10-30T09:13:35.650Z,4.27
2022-10-30T09:16:06.027Z,3.77
2022-10-30T09:18:36.839Z,3.97
2022-10-30T09:21:06.479Z,3.47
2022-10-30T09:23:40.164Z,3.50
2022-10-30T09:26:28.206Z,3.43
2022-10-30T09:29:15.345Z,3.83
2022-10-30T09:32:01.638Z,4.03
2022-10-30T09:34:32.579Z,3.87
2022-10-30T09:37:23.126Z,4.33
2022-10-30T09:39:54.669Z,4.93
2022-10-30T09:42:42.515Z,5.40
2022-10-30T09:45:30.539Z,4.93
2022-10-30T09:48:19.683Z,4.63
2022-10-30T09:51:02.040Z,5.00
2022-10-30T09:53:34.767Z,5.47
2022-10-30T09:56:13.242Z,5.50
2022-10-30T09:58:50.346Z,6.00
2022-10-30T10:01:21.205Z,5.60
2022-10-30T10:04:02.551Z,6.50
2022-10-30T10:06:51.668Z,5.93
2022-10-30T10:09:34.927Z,11.27
2022-10-30T10:12:33.494Z,8.97
2022-10-30T10:15:06.909Z,8.97
2022-10-30T10:17:36.786Z,7.17
2022-10-30T10:20:06.189Z,6.13
2022-10-30T10:22:39.541Z,5.87
2022-10-30T10:25:10.608Z,5.47
2022-10-30T10:27:50.307Z,5.83
2022-10-30T10:30:21.219Z,5.40
2022-10-30T10:33:24.578Z,5.70
2022-10-30T10:36:04.988Z,5.40
2022-10-30T10:38:48.585Z,5.57
2022-10-30T10:41:21.566Z,5.37
2022-10-30T10:44:13.437Z,4.93
2022-10-30T10:47:06.770Z,5.50
2022-10-30T10:49:52.526Z,5.67
2022-10-30T10:52:22.781Z,4.77
2022-10-30T10:54:53.190Z,5.67
2022-10-30T10:57:27.318Z,5.20
2022-10-30T10:59:57.370Z,5.27
2022-10-30T11:02:32.405Z,5.47
2022-10-30T11:05:06.650Z,4.87
2022-10-30T11:07:38.140Z,5.03
2022-10-30T11:10:13.601Z,5.20
2022-10-30T11:12:41.813Z,4.93
2022-10-30T11:15:24.391Z,4.57
2022-10-30T11:18:00.326Z,5.20
2022-10-30T11:20:33.375Z,4.70
2022-10-30T11:23:01.738Z,4.50
2022-10-30T11:25:35.468Z,4.00
2022-10-30T11:28:05.591Z,4.27
2022-10-30T11:30:33.817Z,4.07
2022-10-30T11:33:23.082Z,4.10
2022-10-30T11:35:51.220Z,4.33
2022-10-30T11:38:20.831Z,4.20
2022-10-30T11:40:49.996Z,3.40
2022-10-30T11:43:21.158Z,4.03
2022-10-30T11:45:49.317Z,4.17
2022-10-30T11:48:23.227Z,3.23
2022-10-30T11:50:51.539Z,4.10
2022-10-30T11:53:23.695Z,4.00
2022-10-30T11:55:51.826Z,3.67
2022-10-30T11:58:25.084Z,4.40
2022-10-30T12:01:02.110Z,4.20
2022-10-30T12:03:37.277Z,6.07
2022-10-30T12:06:10.254Z,5.30
2022-10-30T12:08:38.337Z,4.70
2022-10-30T12:11:06.806Z,4.97
2022-10-30T12:13:39.386Z,5.03
2022-10-30T12:16:15.181Z,7.30
2022-10-30T12:18:54.396Z,6.40
2022-10-30T12:21:22.505Z,7.43
2022-10-30T12:23:53.398Z,7.13
2022-10-30T12:26:21.536Z,5.63
2022-10-30T12:28:52.995Z,5.30
2022-10-30T12:31:23.458Z,5.13
2022-10-30T12:33:58.410Z,4.77
2022-10-30T12:36:28.171Z,4.43
2022-10-30T12:38:58.847Z,3.80
2022-10-30T12:41:28.338Z,3.70
2022-10-30T12:44:00.507Z,4.27
2022-10-30T12:46:34.304Z,4.83
2022-10-30T12:49:11.780Z,5.07
2022-10-30T12:51:43.550Z,4.10
2022-10-30T12:54:18.906Z,4.33
2022-10-30T12:56:48.926Z,4.90
2022-10-30T12:59:32.053Z,3.90
2022-10-30T13:02:03.013Z,4.50
2022-10-30T13:04:36.986Z,4.20
2022-10-30T13:07:09.583Z,3.93
2022-10-30T13:09:40.118Z,3.17
2022-10-30T13:12:10.611Z,3.27
2022-10-30T13:14:42.979Z,3.33
2022-10-30T13:17:12.680Z,3.50
2022-10-30T13:19:43.112Z,3.47
2022-10-30T13:22:16.698Z,3.27
2022-10-30T13:24:50.771Z,3.43
2022-10-30T13:27:22.412Z,3.30
2022-10-30T13:29:53.683Z,3.17
2022-10-30T13:32:31.135Z,3.17
2022-10-30T13:35:07.160Z,3.40
2022-10-30T13:37:37.685Z,3.17
2022-10-30T13:40:15.004Z,2.80
2022-10-30T13:42:52.197Z,2.77
2022-10-30T13:45:40.559Z,2.83
2022-10-30T13:48:29.447Z,2.63
2022-10-30T13:51:31.376Z,2.57
2022-10-30T13:54:11.506Z,2.93
2022-10-30T13:56:39.766Z,3.00
2022-10-30T13:59:21.098Z,3.40
2022-10-30T14:01:57.487Z,2.73
2022-10-30T14:04:33.605Z,3.00
2022-10-30T14:07:17.583Z,2.67
2022-10-30T14:09:53.851Z,2.83
2022-10-30T14:12:45.772Z,2.90
2022-10-30T14:15:22.087Z,2.93
2022-10-30T14:18:32.228Z,2.70
2022-10-30T14:21:00.990Z,3.27
2022-10-30T14:23:33.281Z,2.83
2022-10-30T14:26:15.378Z,3.00
2022-10-30T14:28:45.079Z,2.50
2022-10-30T14:31:14.072Z,2.63
2022-10-30T14:33:51.876Z,2.73
2022-10-30T14:36:23.430Z,2.70
2022-10-30T14:39:02.757Z,3.13
2022-10-30T14:41:45.375Z,2.80
2022-10-30T14:44:51.975Z,2.90
2022-10-30T14:47:53.366Z,3.17
2022-10-30T14:50:32.042Z,2.90
2022-10-30T14:53:23.389Z,3.40
2022-10-30T14:56:02.583Z,3.43
2022-10-30T14:58:32.660Z,2.90
2022-10-30T15:01:31.936Z,2.93
2022-10-30T15:04:21.788Z,2.90
2022-10-30T15:06:59.177Z,3.17
2022-10-30T15:09:45.829Z,3.23
2022-10-30T15:14:58.032Z,5.10
2022-10-30T15:17:30.222Z,4.47
2022-10-30T15:19:58.855Z,4.43
2022-10-30T15:22:27.602Z,4.63
2022-10-30T15:24:55.695Z,5.00
2022-10-30T15:27:25.390Z,4.10
2022-10-30T15:29:55.980Z,4.37
2022-10-30T15:32:25.072Z,4.40
2022-10-30T15:34:59.930Z,3.83
2022-10-30T15:37:28.282Z,3.77
2022-10-30T15:40:17.291Z,3.80
2022-10-30T15:42:47.606Z,3.10
2022-10-30T15:45:20.209Z,3.50
2022-10-30T15:47:49.806Z,3.80
2022-10-30T15:50:19.931Z,3.60
2022-10-30T15:52:48.041Z,3.60
2022-10-30T15:55:17.948Z,3.17
2022-10-30T15:58:02.778Z,3.03
2022-10-30T16:00:33.368Z,3.03
2022-10-30T16:03:06.247Z,2.63
2022-10-30T16:05:34.816Z,2.93
2022-10-30T16:08:03.951Z,2.67
2022-10-30T16:10:34.249Z,2.77
2022-10-30T16:13:04.166Z,2.67
2022-10-30T16:15:34.012Z,2.53
2022-10-30T16:18:16.164Z,2.50
2022-10-30T16:20:45.871Z,2.47
2022-10-30T16:23:14.043Z,2.60
2022-10-30T16:25:47.047Z,2.30
2022-10-30T16:28:30.950Z,2.33
2022-10-30T16:31:01.587Z,2.43
2022-10-30T16:33:30.659Z,3.00
2022-10-30T16:35:58.734Z,2.40
2022-10-30T16:38:30.191Z,2.10
2022-10-30T16:40:58.341Z,2.10
2022-10-30T16:43:30.059Z,2.47
2022-10-30T16:45:59.038Z,2.07
2022-10-30T16:48:28.656Z,2.27
2022-10-30T16:51:01.425Z,2.33
2022-10-30T16:53:29.581Z,2.27
2022-10-30T16:55:59.143Z,2.70
2022-10-30T16:58:30.730Z,2.60
2022-10-30T17:01:04.593Z,2.30
2022-10-30T17:03:37.471Z,1.90
2022-10-30T17:06:07.328Z,2.00
2022-10-30T17:08:41.799Z,2.20
2022-10-30T17:11:18.487Z,2.10
2022-10-30T17:14:02.055Z,2.37
2022-10-30T17:16:31.204Z,2.30
2022-10-30T17:19:00.430Z,2.10
2022-10-30T17:21:30.749Z,2.57
2022-10-30T17:24:00.324Z,2.17
2022-10-30T17:26:28.866Z,2.30
2022-10-30T17:28:56.947Z,2.43
2022-10-30T17:31:31.430Z,2.27
2022-10-30T17:34:20.968Z,1.93
2022-10-30T17:36:49.577Z,2.20
2022-10-30T17:39:17.627Z,2.37
2022-10-30T17:41:46.086Z,2.60
2022-10-30T17:44:19.272Z,2.47
2022-10-30T17:46:50.930Z,2.73
2022-10-30T17:49:26.044Z,2.97
2022-10-30T17:51:54.329Z,2.90
2022-10-30T17:54:22.535Z,2.90
2022-10-30T17:56:50.650Z,2.70
2022-10-30T17:59:18.831Z,2.40
2022-10-30T18:01:48.982Z,2.60
2022-10-30T18:04:20.771Z,3.37
2022-10-30T18:06:49.482Z,3.07
2022-10-30T18:09:17.711Z,2.83
2022-10-30T18:11:45.824Z,2.10
2022-10-30T18:14:13.921Z,2.97
2022-10-30T18:16:41.986Z,2.30
2022-10-30T18:19:12.520Z,2.97
2022-10-30T18:21:40.641Z,2.57
2022-10-30T18:24:12.985Z,2.77
2022-10-30T18:26:41.236Z,2.83
2022-10-30T18:29:09.324Z,3.23
2022-10-30T18:31:37.531Z,3.40
2022-10-30T18:34:05.676Z,2.87
2022-10-30T18:36:35.129Z,2.60
2022-10-30T18:39:03.241Z,3.60
2022-10-30T18:41:33.298Z,3.07
2022-10-30T18:44:01.481Z,3.10
2022-10-30T18:46:29.603Z,3.43
2022-10-30T18:48:58.167Z,3.53
2022-10-30T18:51:27.635Z,3.17
2022-10-30T18:53:57.347Z,3.23
2022-10-30T18:56:26.575Z,3.70
2022-10-30T18:58:58.748Z,4.00
2022-10-30T19:01:31.017Z,3.17
2022-10-30T19:04:00.800Z,3.20
2022-10-30T19:06:29.065Z,3.40
2022-10-30T19:08:58.580Z,2.70
2022-10-30T19:11:28.271Z,3.13
2022-10-30T19:13:58.451Z,3.77
2022-10-30T19:16:26.539Z,3.10
2022-10-30T19:18:54.729Z,3.17
2022-10-30T19:21:25.276Z,3.07
2022-10-30T19:23:53.452Z,3.10
2022-10-30T19:26:22.880Z,3.23
2022-10-30T19:28:50.958Z,3.30
2022-10-30T19:31:20.025Z,3.67
2022-10-30T19:33:52.910Z,3.10
2022-10-30T19:36:29.991Z,2.87
2022-10-30T19:38:58.641Z,3.40
2022-10-30T19:44:01.986Z,3.13
2022-10-30T19:46:30.153Z,3.43
2022-10-30T19:48:59.502Z,3.43
2022-10-30T19:51:28.740Z,3.33
2022-10-30T19:53:57.066Z,3.40
2022-10-30T19:56:25.231Z,3.30
2022-10-30T19:58:54.662Z,3.30
2022-10-30T20:01:22.852Z,3.20
2022-10-30T20:03:51.083Z,3.57
2022-10-30T20:06:21.339Z,3.47
2022-10-30T20:08:49.562Z,3.10
2022-10-30T20:11:17.688Z,2.97
2022-10-30T20:13:47.228Z,3.17
2022-10-30T20:16:18.891Z,3.10
2022-10-30T20:18:47.011Z,3.43
2022-10-30T20:21:15.104Z,3.37
2022-10-30T20:23:43.239Z,3.70
2022-10-30T20:26:19.833Z,3.50
2022-10-30T20:28:47.929Z,3.30
2022-10-30T20:31:16.059Z,3.67
2022-10-30T20:33:45.574Z,3.47
2022-10-30T20:36:13.953Z,3.40
2022-10-30T20:38:42.238Z,3.10
2022-10-30T20:41:20.909Z,3.60
2022-10-30T20:43:49.919Z,3.63
2022-10-30T20:46:18.171Z,3.47
2022-10-30T20:48:47.625Z,3.33
2022-10-30T20:51:15.750Z,3.47
2022-10-30T20:53:43.867Z,3.47
2022-10-30T20:56:12.207Z,3.43
2022-10-30T20:58:40.315Z,3.47
2022-10-30T21:01:08.483Z,3.30
2022-10-30T21:04:01.455Z,3.80
2022-10-30T21:06:50.330Z,3.27
2022-10-30T21:09:38.668Z,3.80
2022-10-30T21:12:27.133Z,3.43
2022-10-30T21:15:15.521Z,3.77
2022-10-30T21:18:03.864Z,3.20
2022-10-30T21:20:53.581Z,3.90
2022-10-30T21:23:41.952Z,3.40
2022-10-30T21:26:30.301Z,3.30
2022-10-30T21:29:18.674Z,3.27
2022-10-30T21:32:07.387Z,3.50
2022-10-30T21:34:55.707Z,3.77
2022-10-30T21:37:45.372Z,3.43
2022-10-30T21:40:33.758Z,3.33
2022-10-30T21:43:22.123Z,3.37
2022-10-30T21:46:11.840Z,3.77
2022-10-30T21:49:03.881Z,4.40
2022-10-30T21:51:52.279Z,3.20
2022-10-30T21:54:42.499Z,4.00
2022-10-30T21:57:30.857Z,3.70
2022-10-30T22:00:19.536Z,3.13
2022-10-30T22:03:07.900Z,3.90
2022-10-30T22:05:56.248Z,3.60
2022-10-30T22:08:46.437Z,3.57
2022-10-30T22:11:36.214Z,4.57
2022-10-30T22:14:24.690Z,3.83
2022-10-30T22:17:13.673Z,4.20
2022-10-30T22:20:02.063Z,3.60
2022-10-30T22:22:50.414Z,3.63
2022-10-30T22:25:38.766Z,3.93
2022-10-30T22:28:28.662Z,3.23
2022-10-30T22:31:18.417Z,3.87
2022-10-30T22:34:06.828Z,3.63
2022-10-30T22:36:55.207Z,3.63
2022-10-30T22:39:44.030Z,3.60
2022-10-30T22:42:32.396Z,3.17
2022-10-30T22:45:22.136Z,3.30
2022-10-30T22:48:10.582Z,4.33
2022-10-30T22:50:59.257Z,3.80
2022-10-30T22:53:48.265Z,3.70
2022-10-30T22:56:37.527Z,3.70
2022-10-30T22:59:26.058Z,3.60
2022-10-30T23:02:15.748Z,3.70
2022-10-30T23:05:04.301Z,3.70
2022-10-30T23:07:53.297Z,4.23
2022-10-30T23:10:41.672Z,3.30
2022-10-30T23:13:30.016Z,3.90
2022-10-30T23:16:20.186Z,3.40
2022-10-30T23:19:10.872Z,3.50
2022-10-30T23:21:59.713Z,3.67
2022-10-30T23:24:49.250Z,3.37
2022-10-30T23:27:37.615Z,4.00
2022-10-30T23:30:25.944Z,3.60
2022-10-30T23:33:14.256Z,3.50
2022-10-30T23:36:04.935Z,3.53
2022-10-30T23:38:53.744Z,4.30
2022-10-30T23:41:42.105Z,3.57
2022-10-30T23:44:30.488Z,4.10
2022-10-30T23:47:18.822Z,3.73
2022-10-30T23:50:07.803Z,3.50
2022-10-30T23:52:57.479Z,3.90
2022-10-30T23:55:51.787Z,3.90
2022-10-30T23:58:40.141Z,3.90
